createdAt,value
2019-03-04T00:00:00.853Z,9.17
2019-03-04T00:02:29.651Z,11.93
2019-03-04T00:04:58.437Z,9.33
2019-03-04T00:07:27.219Z,9.83
2019-03-04T00:09:56.003Z,7.97
2019-03-04T00:12:24.779Z,12.67
2019-03-04T00:14:54.169Z,14.53
2019-03-04T00:17:22.989Z,9.93
2019-03-04T00:19:53.183Z,16.03
2019-03-04T00:22:23.324Z,11.70
2019-03-04T00:24:52.191Z,10.77
2019-03-04T00:27:20.988Z,19.03
2019-03-04T00:29:49.804Z,10.43
2019-03-04T00:32:18.635Z,9.90
2019-03-04T00:34:47.398Z,11.37
2019-03-04T00:37:16.206Z,12.63
2019-03-04T00:39:45.050Z,13.40
2019-03-04T00:42:13.873Z,8.07
2019-03-04T00:44:42.650Z,9.07
2019-03-04T00:47:11.439Z,7.67
2019-03-04T00:49:40.282Z,9.90
2019-03-04T00:52:09.057Z,9.57
2019-03-04T00:54:37.991Z,9.20
2019-03-04T00:57:06.742Z,12.00
2019-03-04T00:59:35.533Z,12.87
2019-03-04T01:02:04.345Z,11.17
2019-03-04T01:04:34.042Z,10.63
2019-03-04T01:07:03.142Z,6.93
2019-03-04T01:09:33.489Z,8.70
2019-03-04T01:12:02.748Z,8.63
2019-03-04T01:14:32.183Z,14.90
2019-03-04T01:17:01.188Z,9.70
2019-03-04T01:19:31.079Z,11.77
2019-03-04T01:22:00.407Z,8.30
2019-03-04T01:24:29.705Z,7.40
2019-03-04T01:26:58.511Z,13.10
2019-03-04T01:29:28.291Z,12.60
2019-03-04T01:31:57.131Z,7.93
2019-03-04T01:34:27.919Z,7.90
2019-03-04T01:36:56.707Z,9.87
2019-03-04T01:39:26.136Z,7.83
2019-03-04T01:41:54.980Z,10.10
2019-03-04T01:44:23.777Z,13.63
2019-03-04T01:46:52.571Z,9.83
2019-03-04T01:49:21.370Z,10.40
2019-03-04T01:51:50.200Z,5.20
2019-03-04T01:54:19.957Z,8.03
2019-03-04T01:56:48.761Z,6.83
2019-03-04T01:59:17.572Z,11.43
2019-03-04T02:01:47.357Z,8.10
2019-03-04T02:04:16.125Z,8.77
2019-03-04T02:06:44.930Z,12.77
2019-03-04T02:09:15.458Z,12.17
2019-03-04T02:11:44.238Z,9.40
2019-03-04T02:14:13.034Z,8.67
2019-03-04T02:16:41.932Z,10.23
2019-03-04T02:19:10.701Z,12.07
2019-03-04T02:21:39.747Z,6.70
2019-03-04T02:24:18.064Z,9.60
2019-03-04T02:26:48.115Z,7.10
2019-03-04T02:29:16.885Z,6.40
2019-03-04T02:31:45.671Z,7.33
2019-03-04T02:34:14.431Z,8.23
2019-03-04T02:36:44.314Z,7.33
2019-03-04T02:39:14.016Z,7.90
2019-03-04T02:41:42.790Z,8.37
2019-03-04T02:44:11.586Z,6.93
2019-03-04T02:46:40.359Z,6.07
2019-03-04T02:49:10.104Z,6.90
2019-03-04T02:51:39.367Z,8.43
2019-03-04T02:54:08.183Z,5.70
2019-03-04T02:56:37.033Z,4.83
2019-03-04T02:59:06.010Z,7.73
2019-03-04T03:01:34.774Z,6.37
2019-03-04T03:04:06.397Z,8.03
2019-03-04T03:06:35.286Z,5.43
2019-03-04T03:09:05.032Z,4.90
2019-03-04T03:11:34.262Z,8.10
2019-03-04T03:14:04.760Z,7.37
2019-03-04T03:16:33.865Z,5.60
2019-03-04T03:19:04.491Z,5.17
2019-03-04T03:21:33.270Z,4.20
2019-03-04T03:24:02.043Z,5.17
2019-03-04T03:26:30.868Z,7.77
2019-03-04T03:28:59.645Z,4.47
2019-03-04T03:31:29.047Z,4.87
2019-03-04T03:33:58.734Z,14.00
2019-03-04T03:36:27.633Z,4.63
2019-03-04T03:38:56.423Z,3.97
2019-03-04T03:41:25.905Z,4.30
2019-03-04T03:43:54.688Z,4.30
2019-03-04T03:46:23.513Z,4.23
2019-03-04T03:48:52.315Z,4.37
2019-03-04T03:51:21.810Z,3.13
2019-03-04T03:53:51.537Z,4.40
2019-03-04T03:56:20.316Z,5.03
2019-03-04T03:58:49.091Z,4.27
2019-03-04T04:01:17.884Z,3.37
2019-03-04T04:03:46.656Z,2.63
2019-03-04T04:06:15.459Z,3.40
2019-03-04T04:08:44.256Z,2.73
2019-03-04T04:11:13.029Z,2.37
2019-03-04T04:13:41.847Z,3.00
2019-03-04T04:16:11.248Z,3.00
2019-03-04T04:18:40.635Z,4.30
2019-03-04T04:21:10.503Z,7.67
2019-03-04T04:23:39.539Z,4.60
2019-03-04T04:26:12.708Z,3.60
2019-03-04T04:28:41.539Z,2.07
2019-03-04T04:31:10.340Z,3.27
2019-03-04T04:33:39.130Z,2.63
2019-03-04T04:36:07.914Z,3.80
2019-03-04T04:38:36.813Z,3.17
2019-03-04T04:41:06.622Z,10.53
2019-03-04T04:43:35.422Z,3.07
2019-03-04T04:46:04.867Z,3.17
2019-03-04T04:48:33.650Z,7.97
2019-03-04T04:51:02.442Z,5.07
2019-03-04T04:53:31.223Z,7.97
2019-03-04T04:55:59.988Z,5.77
2019-03-04T04:58:28.751Z,5.63
2019-03-04T05:00:57.532Z,2.93
2019-03-04T05:03:28.145Z,2.97
2019-03-04T05:05:57.612Z,4.77
2019-03-04T05:08:26.401Z,2.93
2019-03-04T05:10:55.217Z,6.20
2019-03-04T05:13:24.089Z,9.77
2019-03-04T05:15:53.531Z,2.10
2019-03-04T05:18:22.375Z,2.57
2019-03-04T05:20:51.169Z,3.40
2019-03-04T05:23:20.840Z,3.40
2019-03-04T05:25:49.706Z,4.87
2019-03-04T05:28:20.250Z,3.57
2019-03-04T05:30:50.627Z,5.53
2019-03-04T05:33:20.091Z,3.23
2019-03-04T05:35:48.884Z,4.63
2019-03-04T05:38:17.678Z,2.90
2019-03-04T05:40:47.463Z,4.70
2019-03-04T05:43:16.772Z,4.33
2019-03-04T05:45:46.071Z,3.93
2019-03-04T05:48:14.880Z,5.10
2019-03-04T05:50:44.311Z,3.50
2019-03-04T05:53:13.088Z,2.70
2019-03-04T05:55:41.942Z,3.33
2019-03-04T05:58:10.789Z,4.10
2019-03-04T06:00:41.605Z,5.40
2019-03-04T06:03:11.655Z,4.77
2019-03-04T06:05:40.451Z,3.13
2019-03-04T06:08:10.031Z,6.57
2019-03-04T06:10:38.905Z,7.93
2019-03-04T06:13:08.250Z,7.50
2019-03-04T06:15:37.135Z,6.33
2019-03-04T06:18:05.953Z,10.97
2019-03-04T06:20:34.733Z,15.03
2019-03-04T06:23:03.505Z,17.73
2019-03-04T06:25:32.291Z,12.20
2019-03-04T06:28:01.098Z,14.73
2019-03-04T06:30:29.874Z,12.27
2019-03-04T06:33:01.659Z,7.10
2019-03-04T06:35:31.077Z,8.57
2019-03-04T06:37:59.924Z,6.77
2019-03-04T06:40:29.417Z,7.23
2019-03-04T06:42:58.737Z,6.27
2019-03-04T06:45:28.091Z,6.87
2019-03-04T06:47:56.871Z,8.13
2019-03-04T06:50:56.878Z,7.53
2019-03-04T06:53:30.006Z,8.23
2019-03-04T06:56:05.298Z,8.97
2019-03-04T06:58:34.264Z,12.90
2019-03-04T07:01:11.220Z,9.57
2019-03-04T07:03:46.947Z,10.97
2019-03-04T07:06:16.053Z,4.80
2019-03-04T07:09:18.265Z,6.30
2019-03-04T07:11:50.200Z,10.83
2019-03-04T07:14:19.007Z,8.33
2019-03-04T07:16:49.712Z,5.87
2019-03-04T07:19:20.760Z,4.93
2019-03-04T07:21:50.624Z,7.37
2019-03-04T07:24:19.401Z,7.53
2019-03-04T07:26:48.443Z,7.73
2019-03-04T07:29:18.575Z,9.83
2019-03-04T07:31:48.584Z,12.50
2019-03-04T07:34:17.375Z,9.40
2019-03-04T07:36:46.815Z,9.53
2019-03-04T07:39:16.510Z,10.80
2019-03-04T07:44:23.752Z,9.17
2019-03-04T07:46:52.519Z,8.83
2019-03-04T07:49:21.428Z,11.03
2019-03-04T07:51:50.868Z,10.63
2019-03-04T07:54:20.563Z,8.33
2019-03-04T07:56:49.410Z,10.30
2019-03-04T07:59:18.200Z,8.47
2019-03-04T08:01:47.906Z,6.40
2019-03-04T08:04:17.646Z,6.50
2019-03-04T08:06:47.056Z,11.17
2019-03-04T08:09:27.135Z,11.00
2019-03-04T08:12:07.328Z,16.37
2019-03-04T08:14:36.880Z,12.57
2019-03-04T08:17:07.059Z,17.13
2019-03-04T08:19:37.313Z,12.50
2019-03-04T08:22:06.704Z,14.83
2019-03-04T08:24:35.470Z,18.60
2019-03-04T08:27:04.885Z,10.50
2019-03-04T08:29:33.804Z,10.70
2019-03-04T08:32:02.613Z,11.87
2019-03-04T08:34:31.536Z,12.87
2019-03-04T08:37:00.225Z,12.50
2019-03-04T08:39:29.909Z,13.20
2019-03-04T08:42:00.042Z,15.13
2019-03-04T08:44:31.002Z,12.03
2019-03-04T08:46:58.900Z,8.47
2019-03-04T08:49:27.679Z,13.80
2019-03-04T08:51:56.970Z,14.57
2019-03-04T08:54:25.777Z,13.20
2019-03-04T08:57:03.707Z,11.70
2019-03-04T08:59:23.396Z,11.27
2019-03-04T09:01:52.258Z,7.20
2019-03-04T09:04:21.127Z,9.97
2019-03-04T09:06:49.992Z,11.37
2019-03-04T09:09:18.860Z,6.40
2019-03-04T09:11:47.634Z,6.27
2019-03-04T09:14:17.087Z,2.97
2019-03-04T09:16:45.942Z,9.47
2019-03-04T09:19:15.937Z,4.63
2019-03-04T09:21:45.447Z,2.90
2019-03-04T09:24:14.227Z,3.97
2019-03-04T09:26:43.662Z,6.47
2019-03-04T09:29:13.699Z,2.93
2019-03-04T09:31:42.510Z,2.97
2019-03-04T09:34:11.300Z,2.60
2019-03-04T09:36:40.637Z,1.37
2019-03-04T09:39:09.435Z,4.13
2019-03-04T09:41:39.949Z,6.60
2019-03-04T09:44:09.825Z,1.73
2019-03-04T09:46:39.896Z,2.87
2019-03-04T09:49:10.461Z,3.13
2019-03-04T09:51:39.254Z,3.10
2019-03-04T09:54:09.280Z,2.77
2019-03-04T09:56:38.235Z,1.73
2019-03-04T09:59:07.003Z,4.87
2019-03-04T10:01:44.676Z,1.30
2019-03-04T10:04:23.818Z,2.60
2019-03-04T10:07:34.793Z,3.00
2019-03-04T10:10:21.103Z,5.80
2019-03-04T10:12:59.084Z,1.90
2019-03-04T10:15:42.814Z,2.63
2019-03-04T10:18:24.726Z,1.63
2019-03-04T10:21:13.172Z,2.57
2019-03-04T10:23:56.927Z,2.87
2019-03-04T10:26:35.460Z,2.30
2019-03-04T10:29:31.178Z,2.63
2019-03-04T10:32:17.572Z,3.67
2019-03-04T10:35:07.570Z,1.50
2019-03-04T10:37:54.510Z,2.13
2019-03-04T10:40:40.853Z,5.80
2019-03-04T10:43:38.763Z,5.80
2019-03-04T10:46:46.687Z,7.00
2019-03-04T10:49:16.135Z,4.30
2019-03-04T10:51:45.224Z,4.57
2019-03-04T10:54:14.311Z,5.73
2019-03-04T10:56:43.747Z,2.87
2019-03-04T10:59:12.560Z,7.70
2019-03-04T11:01:41.351Z,6.47
2019-03-04T11:04:10.281Z,9.23
2019-03-04T11:06:39.257Z,4.00
2019-03-04T11:09:08.695Z,7.30
2019-03-04T11:11:37.549Z,8.17
2019-03-04T11:14:07.069Z,9.83
2019-03-04T11:16:35.997Z,6.00
2019-03-04T11:19:05.416Z,5.47
2019-03-04T11:21:34.713Z,9.37
2019-03-04T11:24:04.261Z,15.03
2019-03-04T11:26:33.831Z,14.87
2019-03-04T11:29:03.204Z,10.80
2019-03-04T11:31:32.185Z,9.67
2019-03-04T11:34:01.003Z,12.90
2019-03-04T11:36:29.763Z,9.97
2019-03-04T11:39:04.735Z,7.47
2019-03-04T11:41:33.509Z,10.97
2019-03-04T11:44:03.152Z,7.70
2019-03-04T11:46:35.118Z,12.30
2019-03-04T11:49:03.931Z,8.77
2019-03-04T11:51:34.335Z,14.80
2019-03-04T11:54:03.142Z,13.37
2019-03-04T11:56:31.925Z,10.67
2019-03-04T11:59:00.790Z,14.53
2019-03-04T12:01:34.432Z,11.37
2019-03-04T12:04:03.229Z,18.03
2019-03-04T12:06:32.107Z,11.70
2019-03-04T12:09:01.994Z,14.93
2019-03-04T12:11:37.933Z,16.40
2019-03-04T12:14:03.169Z,13.10
2019-03-04T12:16:30.251Z,9.40
2019-03-04T12:18:59.134Z,12.43
2019-03-04T12:21:34.782Z,12.07
2019-03-04T12:24:04.390Z,13.00
2019-03-04T12:26:33.870Z,16.17
2019-03-04T12:29:02.959Z,18.40
2019-03-04T12:31:38.615Z,17.30
2019-03-04T12:34:08.103Z,26.97
2019-03-04T12:36:38.855Z,15.67
2019-03-04T12:39:08.414Z,28.93
2019-03-04T12:41:37.244Z,13.23
2019-03-04T12:44:06.026Z,16.53
2019-03-04T12:46:35.092Z,19.13
2019-03-04T12:49:03.894Z,13.60
2019-03-04T12:51:36.742Z,17.90
2019-03-04T12:54:06.778Z,20.30
2019-03-04T12:56:35.624Z,17.53
2019-03-04T12:59:04.439Z,18.90
2019-03-04T13:01:34.150Z,24.00
2019-03-04T13:04:03.484Z,22.43
2019-03-04T13:06:32.764Z,14.23
2019-03-04T13:09:01.527Z,19.27
2019-03-04T13:11:30.952Z,18.67
2019-03-04T13:13:59.781Z,14.53
2019-03-04T13:16:29.240Z,12.97
2019-03-04T13:18:58.747Z,20.87
2019-03-04T13:21:27.582Z,22.33
2019-03-04T13:23:56.981Z,20.70
2019-03-04T13:26:26.626Z,19.77
2019-03-04T13:28:56.102Z,17.27
2019-03-04T13:31:24.858Z,22.37
2019-03-04T13:33:54.542Z,16.90
2019-03-04T13:36:23.394Z,15.77
2019-03-04T13:38:53.218Z,14.90
2019-03-04T13:41:22.207Z,16.50
2019-03-04T13:43:51.762Z,22.87
2019-03-04T13:46:20.575Z,19.03
2019-03-04T13:48:50.486Z,23.63
2019-03-04T13:51:20.054Z,23.63
2019-03-04T13:53:49.118Z,22.00
2019-03-04T13:56:17.913Z,20.70
2019-03-04T13:58:47.311Z,16.80
2019-03-04T14:01:16.159Z,17.97
2019-03-04T14:03:45.910Z,18.97
2019-03-04T14:06:16.001Z,10.13
2019-03-04T14:08:44.766Z,20.77
2019-03-04T14:11:14.126Z,15.73
2019-03-04T14:13:42.959Z,11.63
2019-03-04T14:16:13.430Z,8.53
2019-03-04T14:18:42.179Z,13.30
2019-03-04T14:21:11.089Z,24.67
2019-03-04T14:23:40.270Z,12.83
2019-03-04T14:26:09.068Z,16.43
2019-03-04T14:28:38.973Z,13.13
2019-03-04T14:31:07.758Z,17.23
2019-03-04T14:33:37.148Z,17.63
2019-03-04T14:36:06.784Z,8.70
2019-03-04T14:38:35.624Z,18.50
2019-03-04T14:41:04.962Z,13.30
2019-03-04T14:43:33.808Z,12.43
2019-03-04T14:46:03.420Z,13.07
2019-03-04T14:48:32.902Z,15.90
2019-03-04T14:51:01.834Z,15.03
2019-03-04T14:53:30.723Z,12.27
2019-03-04T14:56:01.197Z,21.00
2019-03-04T14:58:28.442Z,12.07
2019-03-04T15:00:58.517Z,17.10
2019-03-04T15:03:27.669Z,10.10
2019-03-04T15:06:06.274Z,12.53
2019-03-04T15:08:25.233Z,14.87
2019-03-04T15:10:54.101Z,15.33
2019-03-04T15:13:22.903Z,17.00
2019-03-04T15:16:00.792Z,10.40
2019-03-04T15:18:20.655Z,15.40
2019-03-04T15:20:49.476Z,13.73
2019-03-04T15:23:18.828Z,14.67
2019-03-04T15:25:47.619Z,15.23
2019-03-04T15:28:18.283Z,13.23
2019-03-04T15:30:48.919Z,10.80
2019-03-04T15:33:19.146Z,15.63
2019-03-04T15:35:49.847Z,16.53
2019-03-04T15:38:19.408Z,20.57
2019-03-04T15:40:48.940Z,10.50
2019-03-04T15:43:18.432Z,18.33
2019-03-04T15:45:48.490Z,15.77
2019-03-04T15:48:18.534Z,20.63
2019-03-04T15:50:47.310Z,18.97
2019-03-04T15:53:16.098Z,21.67
2019-03-04T15:55:44.925Z,12.13
2019-03-04T15:58:13.891Z,16.07
2019-03-04T16:00:43.386Z,18.30
2019-03-04T16:03:12.167Z,14.77
2019-03-04T16:05:41.075Z,10.13
2019-03-04T16:08:10.044Z,16.63
2019-03-04T16:10:39.549Z,17.83
2019-03-04T16:13:08.704Z,10.90
2019-03-04T16:15:39.344Z,17.30
2019-03-04T16:18:08.791Z,15.97
2019-03-04T16:20:37.676Z,13.87
2019-03-04T16:23:07.043Z,18.83
2019-03-04T16:25:35.900Z,11.63
2019-03-04T16:28:09.359Z,19.73
2019-03-04T16:30:39.300Z,16.83
2019-03-04T16:33:09.491Z,19.47
2019-03-04T16:35:38.876Z,19.57
2019-03-04T16:38:07.680Z,18.37
2019-03-04T16:40:37.240Z,14.60
2019-03-04T16:43:06.037Z,14.77
2019-03-04T16:45:34.870Z,16.27
2019-03-04T16:48:07.437Z,24.20
2019-03-04T16:50:36.328Z,16.87
2019-03-04T16:53:07.628Z,17.13
2019-03-04T16:55:37.131Z,25.90
2019-03-04T16:58:06.044Z,14.80
2019-03-04T17:00:34.832Z,16.13
2019-03-04T17:03:03.687Z,16.90
2019-03-04T17:05:33.162Z,10.20
2019-03-04T17:08:02.013Z,14.57
2019-03-04T17:10:31.435Z,14.73
2019-03-04T17:13:00.883Z,16.70
2019-03-04T17:15:30.469Z,11.97
2019-03-04T17:18:00.225Z,16.67
2019-03-04T17:20:29.071Z,16.87
2019-03-04T17:22:58.494Z,18.10
2019-03-04T17:25:28.937Z,13.63
2019-03-04T17:28:03.667Z,11.57
2019-03-04T17:30:32.516Z,10.53
2019-03-04T17:33:01.395Z,14.60
2019-03-04T17:35:31.175Z,15.43
2019-03-04T17:38:00.091Z,13.17
2019-03-04T17:40:29.007Z,14.17
2019-03-04T17:42:57.786Z,20.93
2019-03-04T17:45:26.855Z,20.70
2019-03-04T17:47:55.640Z,27.57
2019-03-04T17:50:28.955Z,13.20
2019-03-04T17:52:57.777Z,13.53
2019-03-04T17:55:26.591Z,16.00
2019-03-04T17:57:55.418Z,20.07
2019-03-04T18:00:24.783Z,19.87
2019-03-04T18:02:53.579Z,18.53
2019-03-04T18:05:23.460Z,15.37
2019-03-04T18:07:53.015Z,12.63
2019-03-04T18:10:21.855Z,14.23
2019-03-04T18:12:53.356Z,20.63
2019-03-04T18:15:22.955Z,17.43
2019-03-04T18:17:51.751Z,15.40
2019-03-04T18:20:21.156Z,18.97
2019-03-04T18:22:49.970Z,18.80
2019-03-04T18:25:24.325Z,19.90
2019-03-04T18:27:56.926Z,14.87
2019-03-04T18:30:44.938Z,13.97
2019-03-04T18:33:30.811Z,16.80
2019-03-04T18:36:42.348Z,14.57
2019-03-04T18:39:29.214Z,13.73
2019-03-04T18:42:07.216Z,21.13
2019-03-04T18:44:46.907Z,19.00
2019-03-04T18:47:39.839Z,20.00
2019-03-04T18:50:08.683Z,21.77
2019-03-04T18:52:37.535Z,14.17
2019-03-04T18:55:08.311Z,16.10
2019-03-04T18:57:37.179Z,16.67
2019-03-04T19:00:11.169Z,12.70
2019-03-04T19:02:41.282Z,16.40
2019-03-04T19:05:10.818Z,21.73
2019-03-04T19:07:39.816Z,19.70
2019-03-04T19:10:09.070Z,24.67
2019-03-04T19:12:39.081Z,20.97
2019-03-04T19:15:09.919Z,21.20
2019-03-04T19:17:38.785Z,19.43
2019-03-04T19:20:10.186Z,12.10
2019-03-04T19:22:39.004Z,38.37
2019-03-04T19:25:08.596Z,22.47
2019-03-04T19:27:37.408Z,25.70
2019-03-04T19:30:06.871Z,19.93
2019-03-04T19:32:35.740Z,16.97
2019-03-04T19:35:05.156Z,11.70
2019-03-04T19:37:33.939Z,11.03
2019-03-04T19:40:06.204Z,10.57
2019-03-04T19:42:32.957Z,17.47
2019-03-04T19:45:01.842Z,13.20
2019-03-04T19:47:30.704Z,14.77
2019-03-04T19:49:59.505Z,15.07
2019-03-04T19:52:29.219Z,17.07
2019-03-04T19:54:58.926Z,16.20
2019-03-04T19:57:30.756Z,8.50
2019-03-04T19:59:59.541Z,11.20
2019-03-04T20:02:28.643Z,14.80
2019-03-04T20:04:58.102Z,8.77
2019-03-04T20:07:27.900Z,8.90
2019-03-04T20:09:57.330Z,9.20
2019-03-04T20:12:27.996Z,8.80
2019-03-04T20:14:56.560Z,8.17
2019-03-04T20:17:25.578Z,6.13
2019-03-04T20:19:55.313Z,10.23
2019-03-04T20:22:24.135Z,3.00
2019-03-04T20:24:52.940Z,8.07
2019-03-04T20:27:24.539Z,9.37
2019-03-04T20:29:53.390Z,7.20
2019-03-04T20:32:22.192Z,5.97
2019-03-04T20:34:52.545Z,5.30
2019-03-04T20:37:21.308Z,12.07
2019-03-04T20:39:50.630Z,13.03
2019-03-04T20:42:20.194Z,12.93
2019-03-04T20:44:49.003Z,11.67
2019-03-04T20:47:19.306Z,6.07
2019-03-04T20:49:48.103Z,10.53
2019-03-04T20:52:16.886Z,9.50
2019-03-04T20:54:45.806Z,6.17
2019-03-04T20:57:15.184Z,7.47
2019-03-04T20:59:43.959Z,7.73
2019-03-04T21:02:12.813Z,9.53
2019-03-04T21:04:41.595Z,7.90
2019-03-04T21:07:11.248Z,12.03
2019-03-04T21:09:40.654Z,11.50
2019-03-04T21:12:10.867Z,9.20
2019-03-04T21:14:40.818Z,9.43
2019-03-04T21:17:10.638Z,7.70
2019-03-04T21:19:40.555Z,8.40
2019-03-04T21:22:09.359Z,12.20
2019-03-04T21:24:38.740Z,9.33
2019-03-04T21:27:07.550Z,9.90
2019-03-04T21:30:00.003Z,10.57
2019-03-04T21:32:40.186Z,10.13
2019-03-04T21:35:26.898Z,10.40
2019-03-04T21:37:56.830Z,10.43
2019-03-04T21:40:38.243Z,11.27
2019-03-04T21:43:15.820Z,11.80
2019-03-04T21:46:07.438Z,13.33
2019-03-04T21:48:42.417Z,13.87
2019-03-04T21:51:25.919Z,18.63
2019-03-04T21:53:54.978Z,16.20
2019-03-04T21:56:35.122Z,18.97
2019-03-04T21:59:04.694Z,16.23
2019-03-04T22:01:39.310Z,15.77
2019-03-04T22:04:09.410Z,16.63
2019-03-04T22:06:38.389Z,19.40
2019-03-04T22:09:07.520Z,18.80
2019-03-04T22:11:36.531Z,21.73
2019-03-04T22:14:06.368Z,13.13
2019-03-04T22:16:35.786Z,18.13
2019-03-04T22:19:06.214Z,17.10
2019-03-04T22:21:35.001Z,15.80
2019-03-04T22:24:04.679Z,14.23
2019-03-04T22:26:34.191Z,28.73
2019-03-04T22:29:03.720Z,13.73
2019-03-04T22:31:32.518Z,12.93
2019-03-04T22:34:01.291Z,21.70
2019-03-04T22:36:30.085Z,16.10
2019-03-04T22:38:58.888Z,19.03
2019-03-04T22:41:27.761Z,16.10
2019-03-04T22:43:57.310Z,16.30
2019-03-04T22:46:26.993Z,22.80
2019-03-04T22:48:56.390Z,14.77
2019-03-04T22:51:25.173Z,21.33
2019-03-04T22:53:54.808Z,15.90
2019-03-04T22:56:24.845Z,16.17
2019-03-04T22:58:53.630Z,18.97
2019-03-04T23:01:30.674Z,23.40
2019-03-04T23:04:05.579Z,16.50
2019-03-04T23:06:35.706Z,17.77
2019-03-04T23:09:07.445Z,28.47
2019-03-04T23:11:36.292Z,21.43
2019-03-04T23:14:12.692Z,21.10
2019-03-04T23:16:41.492Z,19.67
2019-03-04T23:19:11.711Z,19.37
2019-03-04T23:21:40.500Z,29.07
2019-03-04T23:24:09.994Z,24.27
2019-03-04T23:26:40.019Z,28.17
2019-03-04T23:29:08.762Z,27.13
2019-03-04T23:31:37.600Z,20.50
2019-03-04T23:34:06.386Z,27.23
2019-03-04T23:36:35.391Z,22.07
2019-03-04T23:39:05.563Z,20.13
2019-03-04T23:41:37.024Z,23.40
2019-03-04T23:44:06.816Z,27.43
2019-03-04T23:46:36.407Z,28.67
2019-03-04T23:49:05.812Z,29.37
2019-03-04T23:51:35.751Z,21.83
2019-03-04T23:54:05.612Z,21.13
2019-03-04T23:56:35.933Z,21.17
2019-03-04T23:59:04.723Z,26.97
